Time;durP1;ratioP1;P1;durP2;ratioP2;P2;SDS_P1;SDS_P2;PMS_P1;PMS_P2;Temp;Humidity;BMP_temperature;BMP_pressure;BME280_temperature;BME280_humidity;BME280_pressure;Samples;Min_cycle;Max_cycle;Signal;HPM_P1;HPM_P2
2024/02/02 00:01:14;;;;;;;0.10;0.10;;;;;;;11.50;73.48;102113.09;7361112;19;20013;-63
2024/02/02 00:03:40;;;;;;;0.10;0.10;;;;;;;11.63;73.37;102132.25;7339184;19;20589;-63
2024/02/02 00:06:05;;;;;;;0.10;0.10;;;;;;;11.54;73.51;102114.84;7363970;19;20007;-63
2024/02/02 00:08:31;;;;;;;0.10;0.10;;;;;;;11.60;73.51;102122.66;7363965;19;20041;-63
2024/02/02 00:10:56;;;;;;;0.10;0.10;;;;;;;11.61;73.53;102142.72;7364129;19;20021;-63
2024/02/02 00:13:22;;;;;;;0.10;0.10;;;;;;;11.63;73.75;102122.66;7367171;19;20007;-63
2024/02/02 00:15:47;;;;;;;0.17;0.17;;;;;;;11.66;73.77;102127.03;7357788;19;20006;-63
2024/02/02 00:18:13;;;;;;;0.10;0.10;;;;;;;11.62;73.17;102126.16;7366743;19;20705;-64
2024/02/02 00:20:38;;;;;;;0.10;0.10;;;;;;;11.56;73.13;102141.88;7363999;19;20014;-63
2024/02/02 00:23:03;;;;;;;0.10;0.10;;;;;;;11.62;73.30;102123.53;7360789;19;20014;-63
2024/02/02 00:25:29;;;;;;;0.10;0.10;;;;;;;11.68;73.40;102131.34;7365846;19;20028;-63
2024/02/02 00:27:55;;;;;;;0.10;0.10;;;;;;;11.62;73.49;102136.63;7360308;19;20019;-64
2024/02/02 00:30:21;;;;;;;0.10;0.10;;;;;;;11.68;73.42;102138.34;7365078;19;20014;-63
2024/02/02 00:32:46;;;;;;;0.20;0.20;;;;;;;11.66;73.38;102143.59;7366832;19;20014;-63
2024/02/02 00:35:13;;;;;;;0.15;0.15;;;;;;;11.60;73.57;102138.34;7360609;19;20550;-63
2024/02/02 00:37:38;;;;;;;0.20;0.20;;;;;;;11.68;73.25;102165.38;7365694;19;20018;-63
2024/02/02 00:40:05;;;;;;;0.10;0.10;;;;;;;11.66;73.82;102138.34;7357992;19;20010;-63
2024/02/02 00:42:31;;;;;;;0.20;0.20;;;;;;;11.59;73.61;102115.69;7371997;19;20652;-63
2024/02/02 00:44:57;;;;;;;0.13;0.13;;;;;;;11.70;73.48;102150.53;7365870;19;20039;-63
2024/02/02 00:47:23;;;;;;;0.10;0.10;;;;;;;11.67;73.68;102144.44;7360964;19;20021;-63
2024/02/02 00:49:48;;;;;;;0.10;0.10;;;;;;;11.72;73.80;102147.06;7367813;19;20011;-63
2024/02/02 00:52:13;;;;;;;0.10;0.10;;;;;;;11.70;73.82;102149.66;7354445;19;20090;-63
2024/02/02 00:54:39;;;;;;;0.20;0.20;;;;;;;11.39;73.73;102096.59;7363703;19;20078;-63
2024/02/02 00:57:05;;;;;;;0.10;0.10;;;;;;;11.69;73.30;102151.41;7360998;19;20608;-63
2024/02/02 00:59:30;;;;;;;0.20;0.20;;;;;;;11.55;73.83;102119.19;7354965;19;20082;-63
2024/02/02 01:01:56;;;;;;;0.10;0.10;;;;;;;11.56;73.49;102107.88;7359234;19;20461;-63
2024/02/02 01:04:21;;;;;;;0.10;0.10;;;;;;;11.76;73.64;102143.53;7365629;19;20003;-63
2024/02/02 01:06:47;;;;;;;0.10;0.10;;;;;;;11.66;73.78;102138.34;7364527;19;20010;-63
2024/02/02 01:09:12;;;;;;;0.10;0.10;;;;;;;11.69;73.59;102138.31;7362185;19;20013;-63
2024/02/02 01:11:38;;;;;;;0.10;0.10;;;;;;;11.74;73.70;102140.91;7365514;19;20490;-63
2024/02/02 01:14:03;;;;;;;0.10;0.10;;;;;;;11.69;73.79;102143.56;7364510;19;20011;-63
2024/02/02 01:16:29;;;;;;;0.10;0.10;;;;;;;11.76;73.92;102143.53;7362324;19;20022;-63
2024/02/02 01:18:54;;;;;;;0.10;0.10;;;;;;;11.75;73.52;102141.78;7365262;19;20030;-63
2024/02/02 01:21:20;;;;;;;0.20;0.20;;;;;;;11.62;73.73;102125.28;7357431;19;20703;-63
2024/02/02 01:23:45;;;;;;;0.10;0.10;;;;;;;11.59;73.74;102115.69;7359770;19;20017;-63
2024/02/02 01:26:11;;;;;;;0.10;0.10;;;;;;;11.73;73.99;102143.56;7361040;19;20045;-63
2024/02/02 01:28:36;;;;;;;0.10;0.10;;;;;;;11.71;73.73;102135.72;7361425;19;20003;-63
2024/02/02 01:31:01;;;;;;;0.10;0.10;;;;;;;11.55;73.56;102108.72;7368652;19;20017;-63
2024/02/02 01:33:27;;;;;;;0.10;0.10;;;;;;;11.59;73.67;102126.16;7366919;19;20014;-63
2024/02/02 01:35:52;;;;;;;0.10;0.10;;;;;;;11.57;73.80;102112.22;7358061;19;20014;-63
2024/02/02 01:38:18;;;;;;;0.10;0.10;;;;;;;11.61;73.61;102113.09;7368656;19;20041;-63
2024/02/02 01:40:44;;;;;;;0.10;0.10;;;;;;;11.65;73.95;102123.50;7366503;19;20094;-63
2024/02/02 01:43:09;;;;;;;0.10;0.10;;;;;;;11.63;74.07;102122.66;7369770;19;20360;-63
2024/02/02 01:45:34;;;;;;;0.10;0.10;;;;;;;11.61;74.19;102113.94;7362790;19;20013;-63
2024/02/02 01:48:00;;;;;;;0.10;0.10;;;;;;;11.38;74.21;102068.69;7359666;19;20014;-63
2024/02/02 01:50:26;;;;;;;0.15;0.15;;;;;;;11.65;74.20;102106.94;7364439;19;20086;-63
2024/02/02 01:52:52;;;;;;;0.10;0.10;;;;;;;11.61;74.05;102090.41;7369679;19;20019;-63
2024/02/02 01:55:18;;;;;;;0.10;0.10;;;;;;;11.69;73.87;102103.44;7370587;19;20010;-62
2024/02/02 01:57:43;;;;;;;0.10;0.10;;;;;;;11.53;74.03;102075.63;7368471;19;20403;-63
2024/02/02 02:00:09;;;;;;;0.10;0.10;;;;;;;11.64;74.20;102087.75;7366612;19;20010;-63
2024/02/02 02:02:35;;;;;;;0.10;0.10;;;;;;;11.69;73.74;102087.72;7366839;19;20006;-64
2024/02/02 02:05:00;;;;;;;0.10;0.10;;;;;;;11.56;73.71;102058.16;7370238;19;20014;-63
2024/02/02 02:07:27;;;;;;;0.10;0.10;;;;;;;11.61;74.18;102068.59;7367867;19;20002;-63
2024/02/02 02:09:52;;;;;;;0.10;0.10;;;;;;;11.68;74.61;102058.09;7364420;19;20010;-64
2024/02/02 02:12:18;;;;;;;0.10;0.10;;;;;;;11.65;74.30;102070.31;7369980;19;20093;-63
2024/02/02 02:14:43;;;;;;;0.10;0.10;;;;;;;11.74;74.44;102082.47;7367019;19;20006;-63
2024/02/02 02:17:09;;;;;;;0.20;0.20;;;;;;;11.79;74.10;102083.31;7370958;19;20027;-63
2024/02/02 02:19:36;;;;;;;0.10;0.10;;;;;;;11.76;73.91;102072.88;7370141;19;20006;-64
2024/02/02 02:22:02;;;;;;;0.10;0.10;;;;;;;11.81;74.36;102071.09;7371793;19;20502;-63
2024/02/02 02:24:27;;;;;;;0.10;0.10;;;;;;;11.79;74.35;102071.09;7370882;19;20742;-63
2024/02/02 02:26:53;;;;;;;0.10;0.10;;;;;;;11.72;74.15;102058.09;7367991;19;20036;-63
2024/02/02 02:29:18;;;;;;;0.10;0.10;;;;;;;11.72;73.77;102060.69;7361419;19;20015;-63
2024/02/02 02:31:57;;;;;;;0.10;0.10;;;;;;;11.88;74.06;102085.94;7366343;19;21829;-63
2024/02/02 02:34:26;;;;;;;0.10;0.10;;;;;;;11.70;74.23;102051.09;7375035;19;20553;-63
2024/02/02 02:36:53;;;;;;;0.10;0.10;;;;;;;11.88;74.32;102084.19;7363401;19;20015;-63
2024/02/02 02:39:19;;;;;;;0.10;0.10;;;;;;;11.90;74.06;102085.03;7360894;19;20018;-63
2024/02/02 02:41:45;;;;;;;0.10;0.10;;;;;;;11.90;74.13;102082.41;7364418;19;20021;-63
2024/02/02 02:44:12;;;;;;;0.10;0.10;;;;;;;11.92;74.19;102082.41;7369065;19;20498;-63
2024/02/02 02:46:38;;;;;;;;;;;;;;;11.98;73.42;102073.66;7374205;19;20024;-63
2024/02/02 02:49:03;;;;;;;0.10;0.10;;;;;;;11.86;74.02;102062.38;7368301;19;19934;-63
2024/02/02 02:51:28;;;;;;;0.13;0.13;;;;;;;11.90;74.07;102068.44;7365979;19;20097;-63
2024/02/02 02:53:54;;;;;;;0.10;0.10;;;;;;;11.91;74.03;102070.19;7367701;19;20021;-63
2024/02/02 02:56:19;;;;;;;0.10;0.10;;;;;;;11.97;74.10;102064.94;7372101;19;20027;-63
2024/02/02 02:58:45;;;;;;;0.10;0.10;;;;;;;11.87;74.08;102071.97;7365269;19;20074;-63
2024/02/02 03:01:10;;;;;;;0.10;0.10;;;;;;;11.77;74.05;102046.72;7366602;19;20462;-63
2024/02/02 03:03:35;;;;;;;0.15;0.15;;;;;;;11.95;74.05;102074.53;7361481;19;20010;-63
2024/02/02 03:06:01;;;;;;;0.10;0.10;;;;;;;11.94;73.99;102071.03;7367447;19;20897;-63
2024/02/02 03:08:26;;;;;;;0.10;0.10;;;;;;;11.95;74.15;102077.16;7361914;19;20014;-63
2024/02/02 03:10:52;;;;;;;0.10;0.10;;;;;;;11.99;74.49;102078.88;7368043;19;20007;-63
2024/02/02 03:13:17;;;;;;;0.10;0.10;;;;;;;11.98;74.15;102073.66;7360350;19;20019;-63
2024/02/02 03:15:43;;;;;;;0.10;0.10;;;;;;;11.98;74.12;102053.56;7364936;19;20371;-63
2024/02/02 03:18:10;;;;;;;0.10;0.10;;;;;;;12.02;74.01;102068.38;7368474;19;20018;-63
2024/02/02 03:20:35;;;;;;;0.10;0.10;;;;;;;11.93;74.62;102042.28;7369670;19;20007;-63
2024/02/02 03:23:01;;;;;;;0.10;0.10;;;;;;;11.97;74.57;102044.00;7368188;19;20470;-63
2024/02/02 03:25:26;;;;;;;0.10;0.10;;;;;;;12.02;74.64;102055.31;7368535;19;20368;-63
2024/02/02 03:27:52;;;;;;;0.10;0.10;;;;;;;11.92;74.75;102038.78;7366786;19;20354;-63
2024/02/02 03:30:17;;;;;;;0.10;0.10;;;;;;;11.95;74.42;102035.25;7367205;19;20540;-63
2024/02/02 03:32:44;;;;;;;0.10;0.10;;;;;;;12.04;74.65;102040.44;7364270;19;20015;-63
2024/02/02 03:35:10;;;;;;;0.10;0.10;;;;;;;11.87;74.43;102011.78;7366481;19;20010;-63
2024/02/02 03:37:35;;;;;;;0.10;0.10;;;;;;;12.02;74.34;102029.13;7364490;19;20024;-63
2024/02/02 03:40:01;;;;;;;0.10;0.10;;;;;;;11.95;74.47;102030.03;7366978;19;20019;-63
2024/02/02 03:42:26;;;;;;;0.20;0.20;;;;;;;12.04;74.53;102029.09;7366633;19;20010;-63
2024/02/02 03:44:52;;;;;;;0.20;0.20;;;;;;;12.02;74.64;102028.25;7373095;19;20017;-63
2024/02/02 03:47:17;;;;;;;0.10;0.10;;;;;;;11.90;74.63;102005.63;7361777;19;20356;-64
2024/02/02 03:49:43;;;;;;;0.10;0.10;;;;;;;11.84;74.63;101995.22;7359354;19;20031;-63
2024/02/02 03:52:08;;;;;;;0.10;0.10;;;;;;;11.91;74.95;102005.63;7366193;19;20800;-63
2024/02/02 03:54:34;;;;;;;0.10;0.10;;;;;;;12.00;74.56;102017.78;7365668;19;20006;-63
2024/02/02 03:57:01;;;;;;;0.10;0.10;;;;;;;11.99;74.85;102010.81;7365129;19;20022;-63
2024/02/02 03:59:26;;;;;;;0.10;0.10;;;;;;;12.01;74.63;102003.78;7359993;19;20002;-63
2024/02/02 04:01:52;;;;;;;0.10;0.10;;;;;;;11.88;74.79;101986.47;7365029;19;20029;-63
2024/02/02 04:04:17;;;;;;;0.10;0.10;;;;;;;12.01;74.94;101998.56;7348290;19;20010;-63
2024/02/02 04:06:43;;;;;;;0.10;0.10;;;;;;;12.00;74.91;101996.81;7368172;19;20010;-63
2024/02/02 04:09:08;;;;;;;0.10;0.10;;;;;;;12.00;74.41;101986.34;7351316;19;20006;-63
2024/02/02 04:11:37;;;;;;;0.10;0.10;;;;;;;11.82;74.70;101965.56;7371724;19;20032;-63
2024/02/02 04:14:03;;;;;;;0.10;0.10;;;;;;;11.99;74.36;101989.88;7352205;19;20010;-63
2024/02/02 04:16:28;;;;;;;0.10;0.10;;;;;;;11.89;74.70;101967.25;7332863;19;20027;-63
2024/02/02 04:18:54;;;;;;;0.10;0.10;;;;;;;11.97;74.67;101981.16;7364706;19;20799;-63
2024/02/02 04:21:19;;;;;;;0.10;0.10;;;;;;;11.90;74.32;101977.69;7358645;19;20082;-63
2024/02/02 04:23:45;;;;;;;0.10;0.10;;;;;;;11.97;74.48;101986.41;7359322;19;20011;-63
2024/02/02 04:26:10;;;;;;;0.10;0.10;;;;;;;11.94;75.09;101995.13;7365952;19;20003;-63
2024/02/02 04:28:36;;;;;;;0.10;0.10;;;;;;;11.95;74.53;101998.59;7367587;19;20077;-63
2024/02/02 04:31:01;;;;;;;0.10;0.10;;;;;;;11.80;74.85;101977.75;7363464;19;20011;-63
2024/02/02 04:33:27;;;;;;;0.10;0.10;;;;;;;11.85;74.68;101981.25;7369916;19;20014;-63
2024/02/02 04:35:52;;;;;;;0.10;0.10;;;;;;;11.91;74.77;101981.19;7364719;19;20062;-63
2024/02/02 04:38:18;;;;;;;0.10;0.10;;;;;;;11.89;74.90;101983.81;7368075;19;20011;-63
2024/02/02 04:40:45;;;;;;;0.20;0.20;;;;;;;11.90;75.05;101974.22;7364964;19;20620;-63
2024/02/02 04:43:10;;;;;;;0.10;0.10;;;;;;;11.74;74.63;101952.50;7361513;19;20015;-63
2024/02/02 04:45:36;;;;;;;0.10;0.10;;;;;;;11.89;74.79;101959.41;7367988;19;20010;-63
2024/02/02 04:48:02;;;;;;;0.10;0.10;;;;;;;11.91;75.10;101971.63;7361611;19;20007;-63
2024/02/02 04:50:28;;;;;;;0.10;0.10;;;;;;;11.97;74.61;101991.63;7362122;19;20023;-63
2024/02/02 04:52:54;;;;;;;0.13;0.13;;;;;;;11.99;74.88;101987.25;7363282;19;20014;-63
2024/02/02 04:55:19;;;;;;;0.10;0.10;;;;;;;12.01;74.98;101993.31;7365974;19;20574;-63
2024/02/02 04:57:45;;;;;;;0.10;0.10;;;;;;;11.89;74.97;101956.78;7362428;19;20036;-63
2024/02/02 05:00:11;;;;;;;0.10;0.10;;;;;;;11.99;75.17;101963.69;7360952;19;20797;-63
2024/02/02 05:02:37;;;;;;;0.10;0.10;;;;;;;12.12;75.02;101965.31;7362216;19;20011;-63
2024/02/02 05:05:02;;;;;;;0.10;0.10;;;;;;;12.15;75.03;101957.41;7360644;19;20088;-64
2024/02/02 05:07:28;;;;;;;0.10;0.10;;;;;;;12.17;74.80;101968.78;7363320;19;20006;-63
2024/02/02 05:09:53;;;;;;;0.10;0.10;;;;;;;12.04;75.04;101934.84;7364951;19;20828;-63
2024/02/02 05:12:19;;;;;;;0.10;0.10;;;;;;;12.18;74.76;101943.44;7364297;19;20473;-63
2024/02/02 05:14:44;;;;;;;0.10;0.10;;;;;;;12.20;74.61;101958.25;7364579;19;20007;-63
2024/02/02 05:17:10;;;;;;;0.10;0.10;;;;;;;12.03;74.55;101917.41;7361561;19;20011;-63
2024/02/02 05:19:35;;;;;;;0.10;0.10;;;;;;;12.05;74.29;101911.25;7362081;19;20011;-63
2024/02/02 05:22:01;;;;;;;0.10;0.10;;;;;;;12.22;74.22;101944.28;7361490;19;20025;-63
2024/02/02 05:24:26;;;;;;;0.10;0.10;;;;;;;12.19;74.81;101939.94;7365391;19;20070;-63
2024/02/02 05:26:52;;;;;;;0.10;0.10;;;;;;;12.17;74.63;101932.09;7361427;19;20042;-63
2024/02/02 05:29:18;;;;;;;0.10;0.10;;;;;;;12.16;74.68;101935.59;7372954;19;20486;-63
2024/02/02 05:31:44;;;;;;;0.10;0.10;;;;;;;12.13;74.40;101930.41;7377461;19;20022;-63
2024/02/02 05:34:09;;;;;;;0.20;0.20;;;;;;;12.08;74.51;101915.63;7368795;19;20002;-63
2024/02/02 05:36:35;;;;;;;0.10;0.10;;;;;;;12.00;74.81;101915.66;7369156;19;20092;-63
2024/02/02 05:39:00;;;;;;;0.10;0.10;;;;;;;12.01;74.60;101919.16;7371471;19;20006;-63
2024/02/02 05:41:25;;;;;;;0.10;0.10;;;;;;;12.02;75.02;101934.88;7366210;19;20037;-64
2024/02/02 05:43:51;;;;;;;0.20;0.20;;;;;;;12.08;75.08;101933.94;7369564;19;20010;-63
2024/02/02 05:46:16;;;;;;;0.10;0.10;;;;;;;12.14;75.14;101950.44;7376960;19;20035;-63
2024/02/02 05:48:42;;;;;;;0.10;0.10;;;;;;;11.99;75.27;101910.47;7366298;19;20014;-63
2024/02/02 05:51:07;;;;;;;0.10;0.10;;;;;;;12.04;75.01;101929.59;7368684;19;20010;-63
2024/02/02 05:53:32;;;;;;;0.10;0.10;;;;;;;12.19;74.91;101951.28;7372354;19;20015;-63
2024/02/02 05:55:58;;;;;;;0.10;0.10;;;;;;;12.20;75.18;101949.53;7369007;19;20007;-63
2024/02/02 05:58:23;;;;;;;0.10;0.10;;;;;;;12.06;74.93;101928.69;7371229;19;20006;-63
2024/02/02 06:00:49;;;;;;;0.10;0.10;;;;;;;12.23;75.07;101951.25;7366493;19;20002;-63
2024/02/02 06:03:14;;;;;;;0.10;0.10;;;;;;;12.24;74.68;101927.66;7369988;19;20014;-63
2024/02/02 06:05:40;;;;;;;0.10;0.10;;;;;;;12.17;74.81;101932.09;7360540;19;20014;-63
2024/02/02 06:08:08;;;;;;;0.10;0.10;;;;;;;12.22;75.40;101939.06;7371680;19;20448;-63
2024/02/02 06:10:34;;;;;;;0.20;0.20;;;;;;;12.09;75.06;101931.31;7369757;19;21492;-63
2024/02/02 06:12:59;;;;;;;0.10;0.10;;;;;;;12.13;75.12;101909.44;7363829;19;20010;-63
2024/02/02 06:15:25;;;;;;;0.10;0.10;;;;;;;12.20;74.85;101932.06;7369220;19;20033;-63
2024/02/02 06:17:53;;;;;;;0.10;0.10;;;;;;;12.34;74.93;101949.41;7368146;19;20799;-63
2024/02/02 06:20:19;;;;;;;0.10;0.10;;;;;;;12.20;74.91;101925.97;7364919;19;20002;-63
2024/02/02 06:22:44;;;;;;;0.10;0.10;;;;;;;12.30;74.93;101931.97;7368616;19;20017;-63
2024/02/02 06:25:10;;;;;;;0.10;0.10;;;;;;;12.33;74.61;101937.19;7365779;19;20010;-64
2024/02/02 06:27:36;;;;;;;0.10;0.10;;;;;;;12.28;74.79;101923.28;7370243;19;20011;-63
2024/02/02 06:30:03;;;;;;;0.10;0.10;;;;;;;12.43;75.06;101944.06;7362932;19;20018;-63
2024/02/02 06:32:29;;;;;;;0.10;0.10;;;;;;;12.45;74.97;101926.56;7368954;19;20361;-63
2024/02/02 06:34:58;;;;;;;0.10;0.10;;;;;;;12.47;74.82;101937.94;7361436;19;20002;-63
2024/02/02 06:37:25;;;;;;;0.10;0.10;;;;;;;12.47;74.88;101940.53;7371702;19;20017;-63
2024/02/02 06:39:52;;;;;;;0.10;0.10;;;;;;;12.50;74.94;101935.25;7358841;19;20357;-63
2024/02/02 06:42:21;;;;;;;0.10;0.10;;;;;;;12.41;74.81;101920.50;7376336;19;20775;-63
2024/02/02 06:44:48;;;;;;;0.10;0.10;;;;;;;12.52;74.87;101964.03;7368540;19;20024;-62
2024/02/02 06:47:13;;;;;;;0.10;0.10;;;;;;;12.44;74.62;101927.47;7364037;19;20029;-63
2024/02/02 06:49:39;;;;;;;0.10;0.10;;;;;;;12.55;75.03;101941.31;7370037;19;21050;-63
2024/02/02 06:52:04;;;;;;;0.10;0.10;;;;;;;12.55;74.56;101927.34;7365736;19;19994;-63
2024/02/02 06:54:30;;;;;;;0.10;0.10;;;;;;;12.37;74.88;101908.34;7363820;19;20767;-63
2024/02/02 06:56:55;;;;;;;0.10;0.10;;;;;;;12.47;74.66;101916.97;7367957;19;19995;-63
2024/02/02 06:59:21;;;;;;;0.10;0.10;;;;;;;12.61;74.42;101941.22;7363683;19;20010;-63
2024/02/02 07:01:47;;;;;;;0.10;0.10;;;;;;;12.62;74.82;101944.72;7361300;19;19999;-63
2024/02/02 07:04:14;;;;;;;0.15;0.15;;;;;;;12.63;74.58;101936.88;7368423;19;20006;-62
2024/02/02 07:06:40;;;;;;;0.10;0.10;;;;;;;12.66;74.27;101941.19;7368516;19;20422;-63
2024/02/02 07:09:26;;;;;;;0.10;0.10;;;;;;;12.65;74.26;101934.22;7369418;19;20007;-63
2024/02/02 07:11:58;;;;;;;0.10;0.10;;;;;;;12.63;74.15;101931.63;7368132;19;20544;-63
2024/02/02 07:14:47;;;;;;;0.20;0.20;;;;;;;12.71;74.39;101950.72;7358453;19;20560;-63
2024/02/02 07:17:30;;;;;;;0.10;0.10;;;;;;;12.72;74.27;101949.88;7372378;19;20019;-63
2024/02/02 07:19:57;;;;;;;0.10;0.10;;;;;;;12.69;74.31;101949.03;7371353;19;20104;-63
2024/02/02 07:22:39;;;;;;;0.10;0.10;;;;;;;12.62;73.99;101945.63;7365148;19;20752;-63
2024/02/02 07:25:10;;;;;;;0.10;0.10;;;;;;;12.61;74.07;101938.63;7368606;19;20010;-63
2024/02/02 07:27:49;;;;;;;0.10;0.10;;;;;;;12.73;73.91;101959.47;7355262;19;20002;-63
2024/02/02 07:30:34;;;;;;;0.10;0.10;;;;;;;12.76;73.99;101966.41;7371448;19;20018;-63
2024/02/02 07:33:00;;;;;;;0.10;0.10;;;;;;;12.71;74.46;101953.34;7368205;19;20612;-63
2024/02/02 07:35:34;;;;;;;0.10;0.10;;;;;;;12.77;74.32;101959.41;7365197;19;20393;-63
2024/02/02 07:38:06;;;;;;;0.10;0.10;;;;;;;12.78;74.40;101961.16;7358828;19;20116;-63
2024/02/02 07:40:50;;;;;;;0.20;0.20;;;;;;;12.74;74.52;101955.09;7365775;19;20018;-63
2024/02/02 07:43:16;;;;;;;0.10;0.10;;;;;;;12.68;74.16;101940.28;7364931;19;20006;-63
2024/02/02 07:45:41;;;;;;;0.10;0.10;;;;;;;12.68;74.20;101944.69;7366730;19;20017;-63
2024/02/02 07:48:07;;;;;;;0.10;0.10;;;;;;;12.66;74.25;101947.28;7361349;19;20605;-64
2024/02/02 07:50:34;;;;;;;0.10;0.10;;;;;;;12.71;74.19;101945.47;7363271;19;20010;-63
2024/02/02 07:53:00;;;;;;;0.10;0.10;;;;;;;12.80;74.10;101960.25;7371251;19;20009;-63
2024/02/02 07:55:25;;;;;;;0.10;0.10;;;;;;;12.82;73.93;101952.34;7364829;19;20073;-63
2024/02/02 07:57:51;;;;;;;0.10;0.10;;;;;;;12.70;74.13;101943.75;7360501;19;20018;-63
2024/02/02 08:00:16;;;;;;;0.10;0.10;;;;;;;12.68;74.04;101929.81;7362594;19;20038;-63
2024/02/02 08:02:42;;;;;;;0.10;0.10;;;;;;;12.70;73.95;101946.38;7368065;19;20033;-63
2024/02/02 08:05:08;;;;;;;0.10;0.10;;;;;;;12.82;74.02;101973.31;7364327;19;20017;-63
2024/02/02 08:07:36;;;;;;;0.10;0.10;;;;;;;12.83;74.07;101959.34;7366140;19;20011;-63
2024/02/02 08:10:01;;;;;;;0.10;0.10;;;;;;;12.82;73.79;101973.31;7359344;19;20524;-63
2024/02/02 08:12:27;;;;;;;0.15;0.15;;;;;;;12.81;73.89;101982.09;7358917;19;20003;-63
2024/02/02 08:14:52;;;;;;;0.15;0.15;;;;;;;12.75;73.79;101976.91;7360315;19;20027;-63
2024/02/02 08:17:18;;;;;;;0.10;0.10;;;;;;;12.72;73.74;101959.44;7364794;19;20007;-63
2024/02/02 08:19:44;;;;;;;0.10;0.10;;;;;;;12.78;73.67;101964.66;7361829;19;20022;-63
2024/02/02 08:22:09;;;;;;;0.10;0.10;;;;;;;12.81;74.04;101967.22;7362374;19;20045;-63
2024/02/02 08:24:35;;;;;;;0.10;0.10;;;;;;;12.76;73.77;101969.03;7364022;19;20010;-63
2024/02/02 08:27:00;;;;;;;0.10;0.10;;;;;;;12.82;74.14;101973.31;7351787;19;20025;-63
2024/02/02 08:29:26;;;;;;;0.20;0.20;;;;;;;12.67;73.78;101943.81;7362744;19;20015;-63
2024/02/02 08:31:51;;;;;;;0.10;0.10;;;;;;;12.81;73.67;101974.22;7362104;19;20009;-62
2024/02/02 08:34:17;;;;;;;0.10;0.10;;;;;;;12.82;74.01;101955.84;7362654;19;20017;-63
2024/02/02 08:36:42;;;;;;;0.10;0.10;;;;;;;12.85;73.79;101968.06;7358908;19;20003;-63
2024/02/02 08:39:08;;;;;;;0.10;0.10;;;;;;;12.87;73.72;101976.75;7359218;19;20022;-63
2024/02/02 08:41:35;;;;;;;0.20;0.20;;;;;;;12.89;73.83;101990.75;7357287;19;20002;-63
2024/02/02 08:44:05;;;;;;;0.10;0.10;;;;;;;12.89;73.81;101978.50;7363159;19;20319;-63
2024/02/02 08:46:35;;;;;;;0.10;0.10;;;;;;;12.69;73.71;101942.03;7351833;19;20066;-63
2024/02/02 08:49:01;;;;;;;0.10;0.10;;;;;;;12.89;73.68;101975.00;7364247;19;20022;-63
2024/02/02 08:51:46;;;;;;;0.20;0.20;;;;;;;12.90;73.59;101992.47;7360436;19;20029;-63
2024/02/02 08:54:15;;;;;;;0.10;0.10;;;;;;;12.92;73.50;101986.31;7362372;19;20692;-63
2024/02/02 08:56:41;;;;;;;0.10;0.10;;;;;;;12.88;73.79;101989.88;7322330;19;20010;-63
2024/02/02 08:59:25;;;;;;;0.10;0.10;;;;;;;12.97;73.49;101988.88;7360877;19;20045;-63
2024/02/02 09:01:51;;;;;;;0.10;0.10;;;;;;;12.92;73.75;101980.19;7355045;19;20010;-63
2024/02/02 09:05:06;;;;;;;0.10;0.10;;;;;;;12.96;73.74;101979.28;7360877;19;20056;-63
2024/02/02 09:07:32;;;;;;;0.17;0.17;;;;;;;12.92;73.44;101980.19;7362695;19;20014;-63
2024/02/02 09:09:57;;;;;;;0.10;0.10;;;;;;;12.84;73.70;101954.09;7364643;19;20010;-63
2024/02/02 09:12:32;;;;;;;0.10;0.10;;;;;;;12.97;73.42;101973.16;7358093;19;20797;-63
2024/02/02 09:14:58;;;;;;;0.10;0.10;;;;;;;12.93;73.55;101987.19;7339057;19;20036;-63
2024/02/02 09:17:28;;;;;;;0.10;0.10;;;;;;;13.01;73.55;101981.84;7366737;19;20014;-63
2024/02/02 09:19:55;;;;;;;0.10;0.10;;;;;;;12.98;73.59;101990.63;7361066;19;20039;-63
2024/02/02 09:22:22;;;;;;;0.10;0.10;;;;;;;12.96;73.90;101989.75;7361707;19;20504;-63
2024/02/02 09:24:49;;;;;;;0.10;0.10;;;;;;;12.87;73.70;101972.38;7366400;19;20018;-63
2024/02/02 09:27:26;;;;;;;0.10;0.10;;;;;;;13.02;73.76;101987.06;7350765;19;20006;-63
2024/02/02 09:29:53;;;;;;;0.10;0.10;;;;;;;13.00;73.67;101991.47;7355852;19;20462;-63
2024/02/02 09:32:18;;;;;;;0.10;0.10;;;;;;;12.67;73.87;101935.94;7360905;19;20018;-63
2024/02/02 09:34:45;;;;;;;0.10;0.10;;;;;;;13.01;73.96;101969.59;7358796;19;20419;-63
2024/02/02 09:37:49;;;;;;;0.17;0.17;;;;;;;13.05;73.66;101976.56;7360144;19;20643;-63
2024/02/02 09:40:55;;;;;;;0.10;0.10;;;;;;;13.09;73.86;101994.00;7358181;19;20361;-63
2024/02/02 09:43:21;;;;;;;0.10;0.10;;;;;;;13.06;73.52;101994.00;7357561;19;20101;-63
2024/02/02 09:46:02;;;;;;;0.10;0.10;;;;;;;13.11;73.82;101996.59;7359868;19;20042;-64
2024/02/02 09:48:37;;;;;;;0.10;0.10;;;;;;;13.10;73.86;101995.72;7358340;19;20034;-63
2024/02/02 09:51:27;;;;;;;0.20;0.20;;;;;;;13.12;73.77;101996.56;7352109;19;20021;-63
2024/02/02 09:54:10;;;;;;;0.10;0.10;;;;;;;13.12;73.63;101986.06;7356542;19;20019;-63
2024/02/02 09:56:48;;;;;;;0.10;0.10;;;;;;;13.13;73.93;101990.44;7359987;19;20093;-63
2024/02/02 09:59:29;;;;;;;0.10;0.10;;;;;;;13.16;73.85;101982.53;7358946;19;20014;-63
2024/02/02 10:02:13;;;;;;;0.10;0.10;;;;;;;13.14;73.64;101986.94;7359810;19;20470;-63
2024/02/02 10:04:41;;;;;;;0.10;0.10;;;;;;;13.16;73.76;101993.00;7359227;19;20010;-63
2024/02/02 10:07:57;;;;;;;0.10;0.10;;;;;;;13.18;73.51;101988.63;7361241;19;20501;-63
2024/02/02 10:11:07;;;;;;;0.10;0.10;;;;;;;13.22;73.69;101989.47;7364161;19;20411;-63
2024/02/02 10:13:58;;;;;;;0.17;0.17;;;;;;;13.23;73.67;101992.09;7372532;19;20416;-63
2024/02/02 10:16:52;;;;;;;0.13;0.13;;;;;;;13.28;73.51;101978.03;7364359;19;20014;-63
2024/02/02 10:19:43;;;;;;;0.10;0.10;;;;;;;13.28;73.71;101984.16;7366308;19;20038;-63
2024/02/02 10:22:15;;;;;;;0.10;0.10;;;;;;;13.26;74.12;101980.69;7371365;19;20702;-63
2024/02/02 10:25:13;;;;;;;0.10;0.10;;;;;;;13.30;73.61;101997.25;7370242;19;20041;-62
2024/02/02 10:28:13;;;;;;;0.10;0.10;;;;;;;13.35;73.84;101990.19;7351377;19;20015;-63
2024/02/02 10:30:48;;;;;;;0.10;0.10;;;;;;;13.34;73.79;101977.97;7364471;19;20018;-63
2024/02/02 10:33:49;;;;;;;0.10;0.10;;;;;;;13.36;73.66;101974.41;7357491;19;20018;-63
2024/02/02 10:36:35;;;;;;;0.10;0.10;;;;;;;13.31;73.58;101967.50;7359297;19;20027;-63
2024/02/02 10:39:00;;;;;;;0.10;0.10;;;;;;;13.36;74.04;101976.19;7364953;19;20028;-62
2024/02/02 10:41:32;;;;;;;0.10;0.10;;;;;;;13.40;74.06;101972.63;7359023;19;20006;-63
2024/02/02 10:44:03;;;;;;;0.10;0.10;;;;;;;13.44;73.95;101969.94;7361298;19;20492;-63
2024/02/02 10:47:06;;;;;;;0.10;0.10;;;;;;;13.49;73.59;101967.25;7355898;19;20117;-63
2024/02/02 10:49:40;;;;;;;0.10;0.10;;;;;;;13.51;73.65;101975.97;7362457;19;20014;-62
2024/02/02 10:52:44;;;;;;;0.10;0.10;;;;;;;13.41;73.69;101956.00;7360012;19;20439;-63
2024/02/02 10:55:17;;;;;;;0.10;0.10;;;;;;;13.56;73.77;101976.75;7368108;19;20018;-63
2024/02/02 10:58:12;;;;;;;0.10;0.10;;;;;;;13.63;73.70;101970.53;7363681;19;20014;-63
2024/02/02 11:00:47;;;;;;;0.10;0.10;;;;;;;13.61;73.65;101963.56;7362000;19;20022;-63
2024/02/02 11:03:26;;;;;;;0.10;0.10;;;;;;;13.66;73.57;101970.47;7362126;19;20021;-63
2024/02/02 11:06:15;;;;;;;0.10;0.10;;;;;;;13.75;73.22;101966.84;7373343;19;20682;-63
2024/02/02 11:08:48;;;;;;;0.10;0.10;;;;;;;13.75;73.52;101965.09;7362034;19;20025;-62
2024/02/02 11:11:23;;;;;;;0.10;0.10;;;;;;;13.74;73.43;101958.13;7365540;19;20011;-63
2024/02/02 11:14:16;;;;;;;0.10;0.10;;;;;;;13.86;73.28;101971.94;7363128;19;20369;-63
2024/02/02 11:16:54;;;;;;;0.10;0.10;;;;;;;13.87;73.29;101974.53;7360238;19;20565;-63
2024/02/02 11:19:22;;;;;;;;;;;;;;;13.94;73.38;101967.44;7365142;19;20433;-63
2024/02/02 11:21:59;;;;;;;0.10;0.10;;;;;;;13.95;73.22;101953.41;7354755;19;19918;-63
2024/02/02 11:24:57;;;;;;;0.10;0.10;;;;;;;13.98;73.18;101955.97;7365004;19;20037;-63
2024/02/02 11:27:59;;;;;;;0.10;0.10;;;;;;;13.85;73.06;101928.19;7366570;19;20018;-63
2024/02/02 11:30:51;;;;;;;0.10;0.10;;;;;;;14.00;73.00;101938.44;7362117;19;20474;-63
2024/02/02 11:33:52;;;;;;;0.10;0.10;;;;;;;13.92;73.28;101929.81;7362684;19;20024;-63
2024/02/02 11:36:23;;;;;;;0.20;0.20;;;;;;;14.06;72.83;101947.97;7353609;19;20014;-63
2024/02/02 11:39:09;;;;;;;0.10;0.10;;;;;;;14.06;72.96;101951.47;7365222;19;20014;-63